createdAt,value
2023-01-02T00:00:47.511Z,30.27
2023-01-02T00:03:19.872Z,29.87
2023-01-02T00:05:51.250Z,28.50
2023-01-02T00:08:26.854Z,28.10
2023-01-02T00:11:05.481Z,28.17
2023-01-02T00:13:35.893Z,29.57
2023-01-02T00:16:07.200Z,31.53
2023-01-02T00:18:41.575Z,30.90
2023-01-02T00:21:11.898Z,27.13
2023-01-02T00:23:41.245Z,27.43
2023-01-02T00:26:11.524Z,27.93
2023-01-02T00:28:40.299Z,24.70
2023-01-02T00:31:12.764Z,26.57
2023-01-02T00:33:47.211Z,25.73
2023-01-02T00:36:24.507Z,24.53
2023-01-02T00:38:56.405Z,27.50
2023-01-02T00:41:26.069Z,25.67
2023-01-02T00:43:59.812Z,26.60
2023-01-02T00:46:31.586Z,28.50
2023-01-02T00:49:03.893Z,29.23
2023-01-02T00:51:32.827Z,24.73
2023-01-02T00:54:02.094Z,24.83
2023-01-02T00:56:35.040Z,25.27
2023-01-02T00:59:09.100Z,23.50
2023-01-02T01:01:40.204Z,25.07
2023-01-02T01:04:12.846Z,25.43
2023-01-02T01:06:42.113Z,22.77
2023-01-02T01:09:11.908Z,25.23
2023-01-02T01:11:40.815Z,27.03
2023-01-02T01:14:10.627Z,27.93
2023-01-02T01:16:40.426Z,24.43
2023-01-02T01:19:17.799Z,30.57
2023-01-02T01:21:47.086Z,24.20
2023-01-02T01:24:27.359Z,27.13
2023-01-02T01:27:06.528Z,22.37
2023-01-02T01:29:36.829Z,26.40
2023-01-02T01:32:07.839Z,25.57
2023-01-02T01:34:44.840Z,26.37
2023-01-02T01:37:13.831Z,28.70
2023-01-02T01:39:45.940Z,25.53
2023-01-02T01:42:25.310Z,27.60
2023-01-02T01:44:55.119Z,26.30
2023-01-02T01:47:32.932Z,25.47
2023-01-02T01:50:10.022Z,26.53
2023-01-02T01:52:43.764Z,26.37
2023-01-02T01:55:19.238Z,27.57
2023-01-02T01:57:56.065Z,24.13
2023-01-02T02:00:27.516Z,24.13
2023-01-02T02:03:00.299Z,20.97
2023-01-02T02:05:33.852Z,23.03
2023-01-02T02:08:10.093Z,20.80
2023-01-02T02:10:39.176Z,24.43
2023-01-02T02:13:11.334Z,26.50
2023-01-02T02:15:50.720Z,20.33
2023-01-02T02:18:32.675Z,22.67
2023-01-02T02:21:13.094Z,25.40
2023-01-02T02:24:25.557Z,23.43
2023-01-02T02:27:09.247Z,25.03
2023-01-02T02:30:17.847Z,24.33
2023-01-02T02:33:18.670Z,25.33
2023-01-02T02:36:06.903Z,23.57
2023-01-02T02:39:01.638Z,26.07
2023-01-02T02:41:35.465Z,22.33
2023-01-02T02:44:12.766Z,23.03
2023-01-02T02:46:52.317Z,25.40
2023-01-02T02:49:34.749Z,23.73
2023-01-02T02:52:12.075Z,24.60
2023-01-02T02:54:44.999Z,25.53
2023-01-02T02:57:16.582Z,25.80
2023-01-02T02:59:47.603Z,24.97
2023-01-02T03:02:27.811Z,23.30
2023-01-02T03:05:01.873Z,28.43
2023-01-02T03:07:40.775Z,24.80
2023-01-02T03:10:22.867Z,25.37
2023-01-02T03:12:59.680Z,26.50
2023-01-02T03:15:33.721Z,24.30
2023-01-02T03:18:12.113Z,22.97
2023-01-02T03:20:48.310Z,24.13
2023-01-02T03:23:25.464Z,23.90
2023-01-02T03:25:55.034Z,25.73
2023-01-02T03:28:33.943Z,24.40
2023-01-02T03:31:04.378Z,26.23
2023-01-02T03:33:39.827Z,25.47
2023-01-02T03:36:12.123Z,30.33
2023-01-02T03:38:45.521Z,28.23
2023-01-02T03:41:20.534Z,26.07
2023-01-02T03:43:56.961Z,28.57
2023-01-02T03:46:38.583Z,26.63
2023-01-02T03:49:14.524Z,24.23
2023-01-02T03:51:46.564Z,30.17
2023-01-02T03:54:19.352Z,27.93
2023-01-02T03:56:58.108Z,25.20
2023-01-02T03:59:35.464Z,26.07
2023-01-02T04:02:16.929Z,27.57
2023-01-02T04:05:00.138Z,23.00
2023-01-02T04:07:50.219Z,21.50
2023-01-02T04:10:22.630Z,23.97
2023-01-02T04:12:55.120Z,25.80
2023-01-02T04:15:26.432Z,24.10
2023-01-02T04:18:03.708Z,26.70
2023-01-02T04:20:34.662Z,23.60
2023-01-02T04:23:27.904Z,22.97
2023-01-02T04:26:00.999Z,25.40
2023-01-02T04:28:34.410Z,25.33
2023-01-02T04:31:07.623Z,24.93
2023-01-02T04:33:49.608Z,23.70
2023-01-02T04:36:21.000Z,23.67
2023-01-02T04:38:52.954Z,21.53
2023-01-02T04:41:27.398Z,26.67
2023-01-02T04:44:00.606Z,26.60
2023-01-02T04:46:38.496Z,24.03
2023-01-02T04:49:07.703Z,24.37
2023-01-02T04:51:40.373Z,25.57
2023-01-02T04:54:18.950Z,22.77
2023-01-02T04:56:47.023Z,26.63
2023-01-02T04:59:25.877Z,24.40
2023-01-02T05:01:55.473Z,23.63
2023-01-02T05:04:25.620Z,24.30
2023-01-02T05:06:59.068Z,22.20
2023-01-02T05:09:38.652Z,23.87
2023-01-02T05:12:07.943Z,25.93
2023-01-02T05:14:49.129Z,23.07
2023-01-02T05:17:22.944Z,26.77
2023-01-02T05:19:54.788Z,24.70
2023-01-02T05:22:40.915Z,23.43
2023-01-02T05:25:17.683Z,25.40
2023-01-02T05:27:49.083Z,25.00
2023-01-02T05:30:18.532Z,27.70
2023-01-02T05:32:47.877Z,25.33
2023-01-02T05:35:19.780Z,25.23
2023-01-02T05:37:51.741Z,25.70
2023-01-02T05:40:21.399Z,26.10
2023-01-02T05:42:52.755Z,27.33
2023-01-02T05:45:22.084Z,27.30
2023-01-02T05:47:53.190Z,21.27
2023-01-02T05:50:24.449Z,26.83
2023-01-02T05:52:53.686Z,22.63
2023-01-02T05:55:26.549Z,24.30
2023-01-02T05:57:56.234Z,23.87
2023-01-02T06:00:26.939Z,25.20
2023-01-02T06:02:57.693Z,22.33
2023-01-02T06:05:29.958Z,25.13
2023-01-02T06:07:58.496Z,24.27
2023-01-02T06:10:38.580Z,24.50
2023-01-02T06:13:10.075Z,24.80
2023-01-02T06:15:39.492Z,23.63
2023-01-02T06:18:11.845Z,29.63
2023-01-02T06:20:41.359Z,23.43
2023-01-02T06:23:22.222Z,27.20
2023-01-02T06:25:54.175Z,26.80
2023-01-02T06:28:25.868Z,25.53
2023-01-02T06:31:01.955Z,25.40
2023-01-02T06:33:32.839Z,25.57
2023-01-02T06:36:04.624Z,22.50
2023-01-02T06:38:35.417Z,26.00
2023-01-02T06:41:19.043Z,24.33
2023-01-02T06:43:55.401Z,24.00
2023-01-02T06:46:25.650Z,23.63
2023-01-02T06:48:54.272Z,24.83
2023-01-02T06:51:24.923Z,23.27
2023-01-02T06:53:53.271Z,26.47
2023-01-02T06:56:34.163Z,24.57
2023-01-02T06:59:04.778Z,24.37
2023-01-02T07:01:34.782Z,27.43
2023-01-02T07:04:07.341Z,28.50
2023-01-02T07:06:37.761Z,24.23
2023-01-02T07:09:09.081Z,32.37
2023-01-02T07:11:39.945Z,28.10
2023-01-02T07:14:10.552Z,24.73
2023-01-02T07:16:42.338Z,24.87
2023-01-02T07:19:15.249Z,22.63
2023-01-02T07:21:44.613Z,23.40
2023-01-02T07:24:18.062Z,23.47
2023-01-02T07:26:56.898Z,23.03
2023-01-02T07:29:29.151Z,23.30
2023-01-02T07:31:58.500Z,25.03
2023-01-02T07:34:34.771Z,24.30
2023-01-02T07:37:09.279Z,27.23
2023-01-02T07:39:41.143Z,26.20
2023-01-02T07:42:14.089Z,27.40
2023-01-02T07:44:45.661Z,24.20
2023-01-02T07:47:17.224Z,24.50
2023-01-02T07:49:49.019Z,25.23
2023-01-02T07:52:23.661Z,25.80
2023-01-02T07:54:54.605Z,24.20
2023-01-02T07:57:26.968Z,23.33
2023-01-02T07:59:57.982Z,24.23
2023-01-02T08:02:27.726Z,26.43
2023-01-02T08:04:56.580Z,28.30
2023-01-02T08:07:31.542Z,23.10
2023-01-02T08:10:00.899Z,22.80
2023-01-02T08:12:41.751Z,24.70
2023-01-02T08:15:15.224Z,25.83
2023-01-02T08:17:46.483Z,31.27
2023-01-02T08:20:15.023Z,23.10
2023-01-02T08:22:46.800Z,23.43
2023-01-02T08:25:25.100Z,22.60
2023-01-02T08:28:03.332Z,24.53
2023-01-02T08:30:34.773Z,28.63
2023-01-02T08:33:12.158Z,27.73
2023-01-02T08:35:44.055Z,28.00
2023-01-02T08:38:24.231Z,27.17
2023-01-02T08:40:52.445Z,29.43
2023-01-02T08:43:23.385Z,26.43
2023-01-02T08:45:52.368Z,22.53
2023-01-02T08:48:26.010Z,27.20
2023-01-02T08:50:56.604Z,29.00
2023-01-02T08:53:30.489Z,24.83
2023-01-02T08:56:26.077Z,28.57
2023-01-02T08:59:10.707Z,24.13
2023-01-02T09:01:45.042Z,25.63
2023-01-02T09:04:20.790Z,26.47
2023-01-02T09:06:49.663Z,25.40
2023-01-02T09:09:29.523Z,22.90
2023-01-02T09:12:01.071Z,22.80
2023-01-02T09:14:32.945Z,19.67
2023-01-02T09:17:01.687Z,24.73
2023-01-02T09:19:32.014Z,20.37
2023-01-02T09:22:02.057Z,22.93
2023-01-02T09:24:35.043Z,22.73
2023-01-02T09:27:06.060Z,24.70
2023-01-02T09:29:49.889Z,20.00
2023-01-02T09:32:23.561Z,19.17
2023-01-02T09:34:53.940Z,23.83
2023-01-02T09:37:24.969Z,21.70
2023-01-02T09:39:53.744Z,23.60
2023-01-02T09:42:24.687Z,22.80
2023-01-02T09:45:03.078Z,22.40
2023-01-02T09:47:40.404Z,22.97
2023-01-02T09:50:16.429Z,23.80
2023-01-02T09:52:59.756Z,22.93
2023-01-02T09:55:37.407Z,20.20
2023-01-02T09:58:13.497Z,25.40
2023-01-02T10:00:55.017Z,22.97
2023-01-02T10:03:30.497Z,23.90
2023-01-02T10:06:10.576Z,23.47
2023-01-02T10:09:09.204Z,23.00
2023-01-02T10:11:45.753Z,22.37
2023-01-02T10:14:37.406Z,21.83
2023-01-02T10:17:21.284Z,25.20
2023-01-02T10:20:04.842Z,24.80
2023-01-02T10:22:37.992Z,20.63
2023-01-02T10:25:22.593Z,23.60
2023-01-02T10:27:55.084Z,25.03
2023-01-02T10:30:26.109Z,32.73
2023-01-02T10:33:03.151Z,26.20
2023-01-02T10:35:42.002Z,26.87
2023-01-02T10:38:21.539Z,26.90
2023-01-02T10:40:52.340Z,25.83
2023-01-02T10:43:21.043Z,23.90
2023-01-02T10:45:51.108Z,25.40
2023-01-02T10:48:31.641Z,23.70
2023-01-02T10:51:04.813Z,26.23
2023-01-02T10:53:40.418Z,23.40
2023-01-02T10:56:22.867Z,22.80
2023-01-02T10:58:52.503Z,23.70
2023-01-02T11:01:23.731Z,20.73
2023-01-02T11:04:15.252Z,23.03
2023-01-02T11:06:55.807Z,24.43
2023-01-02T11:09:26.471Z,21.33
2023-01-02T11:11:56.609Z,24.33
2023-01-02T11:14:29.740Z,22.63
2023-01-02T11:17:11.269Z,22.57
2023-01-02T11:19:49.011Z,23.50
2023-01-02T11:22:30.095Z,22.20
2023-01-02T11:25:04.468Z,24.77
2023-01-02T11:27:36.065Z,21.80
2023-01-02T11:30:09.446Z,23.37
2023-01-02T11:32:41.624Z,21.30
2023-01-02T11:35:39.154Z,26.40
2023-01-02T11:38:29.383Z,24.23
2023-01-02T11:41:06.014Z,23.27
2023-01-02T11:43:53.005Z,22.53
2023-01-02T11:46:35.888Z,20.97
2023-01-02T11:49:12.200Z,19.97
2023-01-02T11:51:46.115Z,24.83
2023-01-02T11:54:26.104Z,21.40
2023-01-02T11:57:02.879Z,20.70
2023-01-02T11:59:40.778Z,22.97
2023-01-02T12:02:20.761Z,21.40
2023-01-02T12:04:56.007Z,22.30
2023-01-02T12:07:48.875Z,22.73
2023-01-02T12:10:32.255Z,20.67
2023-01-02T12:13:21.577Z,23.10
2023-01-02T12:16:12.463Z,20.37
2023-01-02T12:18:57.850Z,21.73
2023-01-02T12:21:33.790Z,19.07
2023-01-02T12:24:28.634Z,20.27
2023-01-02T12:27:14.094Z,21.43
2023-01-02T12:30:16.207Z,23.87
2023-01-02T12:33:11.889Z,20.13
2023-01-02T12:36:23.177Z,18.77
2023-01-02T12:39:08.488Z,21.10
2023-01-02T12:42:01.937Z,18.50
2023-01-02T12:44:54.748Z,19.40
2023-01-02T12:47:48.333Z,18.20
2023-01-02T12:50:57.992Z,21.30
2023-01-02T12:54:18.835Z,19.20
2023-01-02T12:57:00.569Z,19.67
2023-01-02T12:59:45.265Z,15.23
2023-01-02T13:02:21.067Z,19.30
2023-01-02T13:05:01.358Z,20.13
2023-01-02T13:07:35.364Z,19.13
2023-01-02T13:10:14.134Z,18.13
2023-01-02T13:12:53.160Z,19.03
2023-01-02T13:15:29.998Z,17.70
2023-01-02T13:18:05.036Z,18.20
2023-01-02T13:20:42.373Z,17.17
2023-01-02T13:23:28.813Z,17.57
2023-01-02T13:26:04.601Z,18.07
2023-01-02T13:28:58.188Z,17.27
2023-01-02T13:31:46.116Z,17.87
2023-01-02T13:34:23.168Z,19.20
2023-01-02T13:37:05.287Z,20.10
2023-01-02T13:39:47.910Z,16.50
2023-01-02T13:42:45.077Z,17.87
2023-01-02T13:45:22.517Z,19.57
2023-01-02T13:48:04.216Z,20.83
2023-01-02T13:50:34.598Z,21.50
2023-01-02T13:53:16.566Z,25.00
2023-01-02T13:56:17.315Z,22.10
2023-01-02T13:59:00.123Z,116.97
2023-01-02T14:02:06.012Z,84.20
2023-01-02T14:04:45.540Z,55.43
2023-01-02T14:07:53.567Z,52.43
2023-01-02T14:10:43.959Z,51.67
2023-01-02T14:13:30.260Z,41.00
2023-01-02T14:16:37.290Z,42.67
2023-01-02T14:19:25.801Z,32.40
2023-01-02T14:22:19.633Z,66.93
2023-01-02T14:24:54.336Z,36.93
2023-01-02T14:27:26.499Z,36.53
2023-01-02T14:29:59.635Z,35.30
2023-01-02T14:32:38.002Z,30.40
2023-01-02T14:35:10.947Z,24.63
2023-01-02T14:37:46.695Z,24.27
2023-01-02T14:40:22.954Z,25.83
2023-01-02T14:43:12.351Z,23.20
2023-01-02T14:45:43.736Z,26.50
2023-01-02T14:48:28.703Z,27.10
2023-01-02T14:51:05.762Z,26.67
2023-01-02T14:53:40.807Z,26.87
2023-01-02T14:56:16.127Z,27.73
2023-01-02T14:58:49.234Z,26.33
2023-01-02T15:01:42.195Z,27.90
2023-01-02T15:04:22.443Z,28.60
2023-01-02T15:06:58.255Z,31.83
2023-01-02T15:09:46.371Z,26.53
2023-01-02T15:12:41.641Z,28.10
2023-01-02T15:15:14.164Z,27.60
2023-01-02T15:17:51.493Z,33.03
2023-01-02T15:20:25.766Z,32.00
2023-01-02T15:22:55.331Z,25.57
2023-01-02T15:25:40.737Z,29.60
2023-01-02T15:28:27.250Z,29.00
2023-01-02T15:31:04.927Z,33.23
2023-01-02T15:33:40.457Z,32.37
2023-01-02T15:36:15.830Z,38.00
2023-01-02T15:38:46.036Z,34.50
2023-01-02T15:41:22.247Z,36.43
2023-01-02T15:44:17.142Z,41.70
2023-01-02T15:46:50.953Z,51.47
2023-01-02T15:49:25.835Z,56.70
2023-01-02T15:51:59.738Z,39.03
2023-01-02T15:54:40.098Z,31.80
2023-01-02T15:57:23.304Z,34.37
2023-01-02T16:00:04.400Z,30.30
2023-01-02T16:02:54.082Z,31.63
2023-01-02T16:05:31.964Z,33.60
2023-01-02T16:08:09.843Z,26.50
2023-01-02T16:10:38.882Z,29.17
2023-01-02T16:13:39.535Z,35.50
2023-01-02T16:16:15.494Z,29.00
2023-01-02T16:18:53.111Z,34.00
2023-01-02T16:21:32.409Z,33.37
2023-01-02T16:24:04.803Z,36.50
2023-01-02T16:26:41.195Z,31.60
2023-01-02T16:29:17.556Z,35.73
2023-01-02T16:32:00.469Z,33.60
2023-01-02T16:34:34.509Z,33.70
2023-01-02T16:37:43.305Z,35.67
2023-01-02T16:41:02.912Z,31.87
2023-01-02T16:43:39.602Z,32.67
2023-01-02T16:46:26.992Z,34.03
2023-01-02T16:49:01.375Z,33.43
2023-01-02T16:51:36.666Z,27.90
2023-01-02T16:54:10.832Z,34.17
2023-01-02T16:56:39.935Z,30.53
2023-01-02T16:59:12.743Z,32.70
2023-01-02T17:01:46.866Z,34.40
2023-01-02T17:04:24.358Z,33.47
2023-01-02T17:06:55.261Z,30.50
2023-01-02T17:09:31.302Z,36.43
2023-01-02T17:12:10.729Z,35.00
2023-01-02T17:14:39.328Z,33.40
2023-01-02T17:17:24.467Z,32.53
2023-01-02T17:19:57.356Z,33.47
2023-01-02T17:22:35.466Z,36.77
2023-01-02T17:25:06.195Z,39.07
2023-01-02T17:27:41.381Z,37.17
2023-01-02T17:30:21.734Z,40.53
2023-01-02T17:33:03.944Z,32.77
2023-01-02T17:35:44.875Z,40.17
2023-01-02T17:38:15.954Z,32.83
2023-01-02T17:40:44.410Z,32.53
2023-01-02T17:43:16.454Z,39.30
2023-01-02T17:45:47.055Z,33.97
2023-01-02T17:48:32.377Z,43.37
2023-01-02T17:51:04.285Z,34.23
2023-01-02T17:53:41.912Z,41.20
2023-01-02T17:56:21.572Z,30.97
2023-01-02T17:58:53.264Z,31.97
2023-01-02T18:01:23.904Z,39.80
2023-01-02T18:03:56.622Z,31.53
2023-01-02T18:06:26.143Z,33.47
2023-01-02T18:09:05.457Z,35.30
2023-01-02T18:11:42.938Z,30.90
2023-01-02T18:14:22.022Z,35.70
2023-01-02T18:16:57.021Z,33.63
2023-01-02T18:19:34.391Z,29.87
2023-01-02T18:22:10.423Z,29.70
2023-01-02T18:24:41.817Z,29.37
2023-01-02T18:27:33.057Z,30.97
2023-01-02T18:30:14.650Z,27.20
2023-01-02T18:32:47.894Z,29.73
2023-01-02T18:35:56.635Z,28.50
2023-01-02T18:38:25.385Z,24.27
2023-01-02T18:41:05.977Z,24.00
2023-01-02T18:43:37.100Z,24.30
2023-01-02T18:46:16.567Z,20.93
2023-01-02T18:48:47.391Z,21.33
2023-01-02T18:51:36.823Z,21.90
2023-01-02T18:54:19.921Z,23.67
2023-01-02T18:56:51.527Z,24.63
2023-01-02T18:59:31.233Z,20.60
2023-01-02T19:02:06.242Z,20.67
2023-01-02T19:04:42.019Z,20.57
2023-01-02T19:07:35.480Z,21.53
2023-01-02T19:10:21.304Z,24.57
2023-01-02T19:13:10.247Z,20.00
2023-01-02T19:15:45.210Z,23.63
2023-01-02T19:18:36.125Z,23.80
2023-01-02T19:21:25.694Z,22.70
2023-01-02T19:24:01.004Z,23.23
2023-01-02T19:26:38.006Z,22.50
2023-01-02T19:29:19.953Z,22.27
2023-01-02T19:31:54.872Z,23.20
2023-01-02T19:34:42.310Z,25.23
2023-01-02T19:37:28.383Z,23.40
2023-01-02T19:40:03.314Z,25.63
2023-01-02T19:42:42.770Z,27.27
2023-01-02T19:45:22.827Z,27.37
2023-01-02T19:48:01.885Z,25.50
2023-01-02T19:50:30.629Z,31.60
2023-01-02T19:53:01.371Z,27.50
2023-01-02T19:55:33.577Z,30.37
2023-01-02T19:58:04.802Z,29.10
2023-01-02T20:00:41.505Z,28.70
2023-01-02T20:03:18.088Z,29.27
2023-01-02T20:05:50.483Z,26.80
2023-01-02T20:08:24.207Z,27.60
2023-01-02T20:11:00.833Z,26.00
2023-01-02T20:13:35.588Z,21.57
2023-01-02T20:16:06.827Z,24.90
2023-01-02T20:18:50.280Z,29.73
2023-01-02T20:21:22.235Z,27.50
2023-01-02T20:23:56.583Z,28.40
2023-01-02T20:26:41.890Z,26.27
2023-01-02T20:29:11.088Z,27.10
2023-01-02T20:31:47.985Z,23.73
2023-01-02T20:34:26.511Z,31.37
2023-01-02T20:36:56.987Z,27.50
2023-01-02T20:39:27.993Z,26.73
2023-01-02T20:42:00.907Z,28.77
2023-01-02T20:44:33.465Z,29.40
2023-01-02T20:47:19.991Z,29.93
2023-01-02T20:49:51.270Z,25.20
2023-01-02T20:52:34.186Z,26.17
2023-01-02T20:55:07.234Z,25.07
2023-01-02T20:57:54.706Z,26.53
2023-01-02T21:00:35.484Z,25.27
2023-01-02T21:03:06.450Z,24.00
2023-01-02T21:05:41.165Z,28.80
2023-01-02T21:08:16.669Z,29.17
2023-01-02T21:10:48.031Z,30.90
2023-01-02T21:13:20.061Z,24.67
2023-01-02T21:15:52.724Z,28.37
2023-01-02T21:18:25.488Z,30.33
2023-01-02T21:21:11.683Z,23.60
2023-01-02T21:23:46.353Z,23.67
2023-01-02T21:26:20.205Z,25.23
2023-01-02T21:28:53.282Z,26.50
2023-01-02T21:31:22.769Z,23.93
2023-01-02T21:33:51.609Z,23.40
2023-01-02T21:36:31.688Z,24.17
2023-01-02T21:39:01.549Z,31.17
2023-01-02T21:41:47.252Z,27.47
2023-01-02T21:44:21.026Z,27.07
2023-01-02T21:46:50.783Z,26.03
2023-01-02T21:49:21.704Z,25.43
2023-01-02T21:51:58.634Z,27.30
2023-01-02T21:54:34.714Z,25.13
2023-01-02T21:57:06.960Z,21.40
2023-01-02T21:59:39.541Z,24.40
2023-01-02T22:02:22.249Z,24.73
2023-01-02T22:05:05.575Z,23.50
2023-01-02T22:07:39.338Z,23.27
2023-01-02T22:10:12.989Z,21.63
2023-01-02T22:12:45.642Z,23.17
2023-01-02T22:15:18.951Z,30.13
2023-01-02T22:17:50.833Z,23.07
2023-01-02T22:20:21.491Z,22.00
2023-01-02T22:22:51.155Z,21.27
2023-01-02T22:25:19.674Z,22.07
2023-01-02T22:27:58.056Z,21.53
2023-01-02T22:30:34.877Z,21.00
2023-01-02T22:33:05.759Z,23.00
2023-01-02T22:35:37.052Z,23.63
2023-01-02T22:38:06.609Z,26.77
2023-01-02T22:40:36.853Z,22.40
2023-01-02T22:43:06.705Z,27.00
2023-01-02T22:45:45.727Z,23.80
2023-01-02T22:48:24.314Z,23.07
2023-01-02T22:50:57.052Z,23.67
2023-01-02T22:53:29.033Z,25.87
2023-01-02T22:55:59.547Z,24.93
2023-01-02T22:58:30.923Z,25.47
2023-01-02T23:01:11.603Z,27.87
2023-01-02T23:03:48.516Z,24.03
2023-01-02T23:06:22.463Z,28.10
2023-01-02T23:08:52.780Z,25.83
2023-01-02T23:11:23.015Z,26.90
2023-01-02T23:13:56.251Z,24.90
2023-01-02T23:16:45.792Z,26.80
2023-01-02T23:19:21.903Z,25.47
2023-01-02T23:21:54.855Z,23.50
2023-01-02T23:24:28.455Z,26.60
2023-01-02T23:27:07.493Z,23.80
2023-01-02T23:29:47.528Z,25.67
2023-01-02T23:32:19.547Z,25.57
2023-01-02T23:34:50.510Z,23.60
2023-01-02T23:40:04.863Z,24.63
2023-01-02T23:42:33.437Z,26.97
2023-01-02T23:45:11.671Z,25.77
2023-01-02T23:47:49.045Z,26.57
2023-01-02T23:50:19.441Z,24.77
2023-01-02T23:52:48.535Z,25.47
2023-01-02T23:55:18.057Z,26.13
2023-01-02T23:57:49.797Z,26.60
